createdAt,value
2022-11-28T00:00:48.193Z,85.20
2022-11-28T00:05:50.089Z,85.52
2022-11-28T00:10:52.238Z,85.75
2022-11-28T00:15:57.676Z,85.93
2022-11-28T00:21:12.226Z,85.91
2022-11-28T00:26:26.351Z,85.26
2022-11-28T00:31:37.035Z,84.74
2022-11-28T00:36:39.259Z,85.17
2022-11-28T00:41:41.633Z,85.27
2022-11-28T00:46:43.947Z,85.60
2022-11-28T00:51:45.833Z,85.08
2022-11-28T00:56:47.771Z,85.02
2022-11-28T01:01:49.861Z,84.81
2022-11-28T01:06:51.819Z,84.51
2022-11-28T01:11:54.549Z,84.51
2022-11-28T01:16:56.647Z,84.55
2022-11-28T01:21:58.477Z,84.65
2022-11-28T01:27:00.315Z,84.55
2022-11-28T01:32:02.242Z,84.46
2022-11-28T01:37:04.166Z,84.80
2022-11-28T01:42:06.103Z,84.99
2022-11-28T01:47:08.111Z,85.02
2022-11-28T01:52:15.540Z,84.93
2022-11-28T01:57:21.201Z,84.75
2022-11-28T02:02:45.035Z,84.50
2022-11-28T02:07:48.071Z,84.40
2022-11-28T02:12:59.366Z,84.38
2022-11-28T02:18:19.924Z,84.14
2022-11-28T02:23:46.239Z,83.90
2022-11-28T02:29:20.504Z,83.95
2022-11-28T02:34:37.142Z,83.69
2022-11-28T02:39:55.208Z,82.96
2022-11-28T02:45:24.375Z,83.02
2022-11-28T02:50:32.477Z,83.39
2022-11-28T02:55:41.385Z,83.02
2022-11-28T03:00:46.562Z,82.82
2022-11-28T03:06:13.315Z,82.70
2022-11-28T03:11:29.841Z,82.94
2022-11-28T03:16:45.234Z,82.91
2022-11-28T03:21:53.720Z,82.94
2022-11-28T03:27:22.708Z,82.88
2022-11-28T03:32:37.814Z,82.62
2022-11-28T03:37:51.327Z,82.73
2022-11-28T03:42:59.617Z,82.72
2022-11-28T03:48:07.088Z,82.73
2022-11-28T03:53:16.692Z,82.79
2022-11-28T03:58:30.162Z,82.81
2022-11-28T04:03:52.122Z,82.85
2022-11-28T04:09:14.188Z,82.98
2022-11-28T04:14:24.308Z,83.09
2022-11-28T04:19:36.188Z,83.06
2022-11-28T04:24:43.158Z,83.11
2022-11-28T04:29:49.017Z,83.21
2022-11-28T04:34:59.597Z,83.20
2022-11-28T04:40:02.610Z,83.17
2022-11-28T04:45:28.365Z,83.25
2022-11-28T04:50:37.979Z,83.30
2022-11-28T04:56:01.687Z,83.07
2022-11-28T05:01:07.968Z,83.18
2022-11-28T05:06:09.990Z,83.30
2022-11-28T05:11:11.826Z,83.40
2022-11-28T05:16:15.059Z,83.41
2022-11-28T05:21:16.905Z,83.51
2022-11-28T05:26:21.255Z,83.66
2022-11-28T05:31:23.264Z,83.63
2022-11-28T05:36:25.173Z,83.53
2022-11-28T05:41:30.580Z,83.41
2022-11-28T05:46:32.717Z,83.31
2022-11-28T05:51:34.591Z,83.26
2022-11-28T05:56:42.089Z,83.21
2022-11-28T06:01:44.412Z,82.95
2022-11-28T06:06:46.300Z,83.09
2022-11-28T06:11:48.130Z,83.24
2022-11-28T06:16:50.059Z,83.14
2022-11-28T06:21:51.990Z,82.99
2022-11-28T06:26:55.133Z,82.83
2022-11-28T06:31:57.078Z,82.93
2022-11-28T06:36:59.253Z,82.66
2022-11-28T06:42:01.138Z,82.47
2022-11-28T06:47:03.048Z,82.24
2022-11-28T06:52:05.057Z,82.39
2022-11-28T06:57:06.884Z,82.22
2022-11-28T07:02:11.346Z,82.43
2022-11-28T07:07:16.530Z,82.68
2022-11-28T07:12:18.774Z,82.32
2022-11-28T07:17:20.610Z,82.20
2022-11-28T07:22:22.729Z,82.66
2022-11-28T07:27:24.525Z,82.91
2022-11-28T07:32:26.344Z,82.44
2022-11-28T07:37:28.195Z,82.60
2022-11-28T07:42:29.968Z,82.79
2022-11-28T07:47:38.149Z,82.72
2022-11-28T07:52:39.931Z,82.78
2022-11-28T07:57:41.749Z,82.39
2022-11-28T08:02:43.546Z,82.16
2022-11-28T08:07:45.475Z,82.07
2022-11-28T08:12:47.641Z,81.18
2022-11-28T08:17:49.495Z,80.48
2022-11-28T08:22:51.571Z,80.25
2022-11-28T08:27:53.500Z,80.09
2022-11-28T08:33:15.832Z,81.20
2022-11-28T08:38:19.632Z,81.45
2022-11-28T08:43:21.489Z,81.69
2022-11-28T08:48:23.290Z,80.00
2022-11-28T08:53:25.239Z,80.46
2022-11-28T08:58:27.269Z,80.79
2022-11-28T09:03:29.241Z,80.71
2022-11-28T09:08:31.072Z,80.26
2022-11-28T09:13:33.139Z,80.90
2022-11-28T09:18:35.207Z,80.64
2022-11-28T09:23:38.762Z,79.34
2022-11-28T09:28:40.921Z,79.04
2022-11-28T09:33:43.721Z,79.84
2022-11-28T09:38:46.331Z,79.70
2022-11-28T09:43:54.725Z,79.48
2022-11-28T09:49:02.106Z,78.94
2022-11-28T09:54:19.479Z,79.15
2022-11-28T09:59:30.040Z,77.48
2022-11-28T10:04:40.759Z,76.36
2022-11-28T10:10:13.142Z,76.78
2022-11-28T10:15:33.481Z,77.37
2022-11-28T10:20:43.626Z,75.12
2022-11-28T10:25:49.907Z,77.15
2022-11-28T10:31:19.347Z,77.37
2022-11-28T10:36:27.561Z,76.54
2022-11-28T10:41:36.961Z,75.04
2022-11-28T10:46:47.897Z,76.95
2022-11-28T10:52:31.505Z,76.74
2022-11-28T10:57:48.600Z,74.12
2022-11-28T11:02:56.902Z,73.05
2022-11-28T11:08:20.859Z,72.56
2022-11-28T11:13:27.919Z,75.70
2022-11-28T11:18:31.106Z,75.56
2022-11-28T11:23:38.097Z,74.85
2022-11-28T11:28:42.069Z,72.21
2022-11-28T11:33:44.325Z,74.82
2022-11-28T11:38:46.075Z,73.02
2022-11-28T11:43:47.978Z,69.96
2022-11-28T11:48:53.630Z,71.76
2022-11-28T11:54:13.542Z,69.88
2022-11-28T11:59:20.217Z,72.17
2022-11-28T12:04:45.116Z,73.01
2022-11-28T12:09:54.451Z,69.76
2022-11-28T12:14:57.115Z,71.59
2022-11-28T12:20:17.373Z,72.44
2022-11-28T12:25:19.137Z,69.76
2022-11-28T12:30:59.779Z,70.64
2022-11-28T12:36:14.896Z,71.21
2022-11-28T12:41:38.050Z,69.73
2022-11-28T12:46:39.889Z,71.24
2022-11-28T12:52:22.901Z,70.79
2022-11-28T12:57:33.573Z,70.38
2022-11-28T13:02:47.525Z,69.17
2022-11-28T13:08:01.391Z,68.53
2022-11-28T13:13:06.402Z,69.68
2022-11-28T13:18:25.384Z,70.58
2022-11-28T13:23:52.981Z,70.94
2022-11-28T13:29:13.088Z,71.30
2022-11-28T13:34:18.340Z,71.37
2022-11-28T13:39:35.799Z,71.63
2022-11-28T13:44:56.821Z,71.93
2022-11-28T13:50:30.274Z,72.19
2022-11-28T13:55:48.595Z,72.56
2022-11-28T14:01:11.438Z,72.92
2022-11-28T14:06:18.594Z,73.27
2022-11-28T14:11:47.732Z,73.70
2022-11-28T14:17:11.818Z,74.12
2022-11-28T14:22:28.856Z,74.33
2022-11-28T14:27:34.676Z,74.50
2022-11-28T14:32:40.586Z,74.61
2022-11-28T14:38:01.228Z,74.68
2022-11-28T14:43:29.735Z,74.85
2022-11-28T14:48:31.907Z,74.99
2022-11-28T14:53:34.505Z,75.01
2022-11-28T14:58:36.358Z,75.32
2022-11-28T15:03:59.250Z,75.25
2022-11-28T15:09:20.656Z,75.54
2022-11-28T15:14:25.664Z,75.65
2022-11-28T15:19:33.558Z,76.18
2022-11-28T15:24:37.966Z,76.34
2022-11-28T15:29:39.813Z,75.73
2022-11-28T15:34:42.527Z,76.02
2022-11-28T15:39:49.362Z,76.61
2022-11-28T15:44:58.838Z,76.96
2022-11-28T15:50:09.960Z,77.32
2022-11-28T15:55:17.120Z,76.43
2022-11-28T16:00:22.217Z,76.64
2022-11-28T16:05:24.240Z,76.81
2022-11-28T16:10:32.580Z,76.92
2022-11-28T16:15:34.592Z,76.83
2022-11-28T16:20:37.769Z,77.21
2022-11-28T16:25:39.627Z,77.23
2022-11-28T16:30:48.637Z,77.02
2022-11-28T16:35:50.522Z,77.13
2022-11-28T16:41:01.183Z,76.98
2022-11-28T16:46:06.797Z,76.94
2022-11-28T16:51:11.689Z,76.84
2022-11-28T16:56:32.015Z,77.07
2022-11-28T17:01:34.280Z,77.28
2022-11-28T17:06:39.626Z,77.34
2022-11-28T17:11:45.726Z,77.53
2022-11-28T17:16:47.589Z,77.73
2022-11-28T17:21:56.707Z,78.24
2022-11-28T17:26:58.514Z,78.59
2022-11-28T17:32:02.320Z,78.79
2022-11-28T17:37:05.200Z,79.08
2022-11-28T17:42:07.119Z,79.26
2022-11-28T17:47:08.983Z,79.48
2022-11-28T17:52:10.764Z,79.71
2022-11-28T17:57:12.929Z,79.58
2022-11-28T18:02:14.905Z,79.82
2022-11-28T18:07:17.190Z,79.85
2022-11-28T18:12:19.175Z,79.86
2022-11-28T18:17:22.046Z,79.74
2022-11-28T18:22:23.872Z,79.74
2022-11-28T18:27:25.837Z,79.98
2022-11-28T18:32:27.757Z,80.06
2022-11-28T18:37:30.529Z,79.86
2022-11-28T18:42:32.389Z,79.84
2022-11-28T18:47:36.312Z,80.00
2022-11-28T18:52:38.405Z,79.97
2022-11-28T18:57:41.581Z,79.92
2022-11-28T19:02:43.417Z,79.82
2022-11-28T19:07:45.569Z,79.83
2022-11-28T19:12:47.457Z,79.88
2022-11-28T19:17:49.457Z,79.96
2022-11-28T19:22:51.251Z,80.01
2022-11-28T19:27:53.082Z,80.02
2022-11-28T19:32:56.375Z,80.02
2022-11-28T19:37:58.709Z,80.18
2022-11-28T19:43:00.625Z,80.14
2022-11-28T19:48:02.762Z,80.08
2022-11-28T19:53:04.574Z,79.99
2022-11-28T19:58:06.391Z,80.34
2022-11-28T20:03:08.753Z,79.99
2022-11-28T20:08:10.731Z,80.24
2022-11-28T20:13:12.562Z,80.15
2022-11-28T20:18:14.416Z,80.52
2022-11-28T20:23:16.262Z,80.28
2022-11-28T20:28:18.035Z,80.35
2022-11-28T20:33:19.863Z,80.63
2022-11-28T20:38:21.654Z,80.94
2022-11-28T20:43:23.488Z,81.37
2022-11-28T20:48:25.287Z,81.31
2022-11-28T20:53:27.624Z,81.39
2022-11-28T20:58:30.063Z,80.94
2022-11-28T21:03:32.954Z,81.05
2022-11-28T21:08:35.007Z,81.21
2022-11-28T21:13:37.257Z,81.04
2022-11-28T21:18:40.845Z,81.57
2022-11-28T21:23:44.452Z,81.14
2022-11-28T21:28:48.896Z,81.08
2022-11-28T21:33:52.572Z,81.18
2022-11-28T21:38:56.850Z,81.71
2022-11-28T21:43:59.866Z,82.05
2022-11-28T21:49:02.777Z,82.27
2022-11-28T21:54:04.750Z,82.61
2022-11-28T21:59:06.986Z,82.37
2022-11-28T22:04:10.484Z,82.03
2022-11-28T22:09:16.277Z,81.99
2022-11-28T22:14:19.756Z,81.81
2022-11-28T22:19:22.571Z,81.57
2022-11-28T22:24:24.511Z,81.60
2022-11-28T22:29:26.323Z,81.73
2022-11-28T22:34:39.494Z,82.05
2022-11-28T22:39:42.188Z,81.93
2022-11-28T22:44:44.642Z,82.02
2022-11-28T22:49:46.853Z,82.47
2022-11-28T22:54:50.719Z,82.05
2022-11-28T22:59:53.479Z,82.05
2022-11-28T23:04:55.448Z,82.35
2022-11-28T23:09:57.549Z,82.97
2022-11-28T23:14:59.347Z,82.89
2022-11-28T23:20:01.145Z,82.94
2022-11-28T23:25:03.191Z,82.74
2022-11-28T23:30:06.026Z,82.56
2022-11-28T23:35:08.682Z,82.78
2022-11-28T23:40:11.331Z,82.95
2022-11-28T23:45:13.300Z,82.94
2022-11-28T23:50:15.072Z,82.58
2022-11-28T23:55:16.917Z,82.74
